Aérodrome :







RETROUVEZ-NOUS SUR...

 
LOGIN :

S'inscrire | Disclaimer

   EN    FR    IT 

 









Légende :    VFR   VFR Marginal   IFR   IFR Intensif   IFR Très Intensif
Visi : 
Plafond : 
>= 8 km
>= 3000ft
5 à 8 km
1000 à 3000 ft
1500m à 5 km
500 à 1000 ft
800 à 1500m
200 à 500 ft
< 800m
< 200 ft
Symboles :   Orages  Brouillard  Fortes neiges  Fortes précipitations  Vent > 20 kt







- Altitude de l'aérodrome : 71 ft
- Code IATA : YBC


CYBC - Baie Comeau

DERNIER METAR :
  • 251200Z AUTO 24003KT 190V270 9SM CLR 12/10 A3038 RMK SLP290

METARs EXPIRÉS :
  • 251100Z AUTO 00000KT 9SM CLR 08/07 A3037 RMK SLP287

TAF TAF CYBC
Valide du 25 à 08h jusqu'au 25 à 20h UTC


250738Z 2508/2520 VRB03KT P6SM SKC
TEMPO 2508/2512 4SM BR
PROB30 2508/2511 1SM BR
FM251700 21007KT P6SM SKC RMK FCST BASED ON AUTO OBS. NXT FCST BY 251400Z
Pas de NOTAMs connus pour ce terrain.



MET'MAP, la Météo Aéronautique d'un coup d'oeil ! - Copyright ORBIFLY Décembre 2007 - Disclaimer

ORBIFLY MET'MAP TEAM :

Programmation & Développement : Alexandra Zaïnal
Conception & Développement : Baudouin d'Aumeries
Co-Programmation & Développement : Marc-Olivier Méhu
Soutien technique & logistique : Manuel Goepfert

Contact : metmap@orbifly.com




SOURCES & CREDITS :

   NOAA